createdAt,value
2023-02-02T00:00:13.402Z,1010.67
2023-02-02T00:01:13.576Z,1010.69
2023-02-02T00:02:13.835Z,1010.69
2023-02-02T00:03:13.929Z,1010.61
2023-02-02T00:04:14.240Z,1010.69
2023-02-02T00:05:14.342Z,1010.45
2023-02-02T00:06:14.464Z,1010.61
2023-02-02T00:07:14.635Z,1010.59
2023-02-02T00:08:14.875Z,1010.63
2023-02-02T00:09:14.948Z,1010.68
2023-02-02T00:10:15.133Z,1010.67
2023-02-02T00:11:15.319Z,1010.72
2023-02-02T00:12:15.484Z,1010.62
2023-02-02T00:13:15.669Z,1010.58
2023-02-02T00:14:15.839Z,1010.65
2023-02-02T00:15:16.006Z,1010.50
2023-02-02T00:16:16.204Z,1010.64
2023-02-02T00:17:16.335Z,1010.64
2023-02-02T00:18:16.555Z,1010.54
2023-02-02T00:19:16.689Z,1010.72
2023-02-02T00:20:16.887Z,1010.62
2023-02-02T00:21:17.038Z,1010.66
2023-02-02T00:22:17.226Z,1010.57
2023-02-02T00:23:17.473Z,1010.59
2023-02-02T00:24:17.590Z,1010.70
2023-02-02T00:25:17.761Z,1010.61
2023-02-02T00:26:18.031Z,1010.70
2023-02-02T00:27:18.090Z,1010.67
2023-02-02T00:28:18.282Z,1010.63
2023-02-02T00:29:18.447Z,1010.55
2023-02-02T00:30:18.648Z,1010.68
2023-02-02T00:31:18.843Z,1010.68
2023-02-02T00:32:18.948Z,1010.68
2023-02-02T00:33:19.201Z,1010.54
2023-02-02T00:34:19.287Z,1010.59
2023-02-02T00:35:19.467Z,1010.63
2023-02-02T00:36:19.718Z,1010.57
2023-02-02T00:37:19.806Z,1010.63
2023-02-02T00:38:20.037Z,1010.45
2023-02-02T00:39:20.167Z,1010.61
2023-02-02T00:40:20.347Z,1010.57
2023-02-02T00:41:20.516Z,1010.59
2023-02-02T00:42:20.697Z,1010.72
2023-02-02T00:43:20.877Z,1010.55
2023-02-02T00:44:21.050Z,1010.64
2023-02-02T00:45:21.218Z,1010.64
2023-02-02T00:46:21.386Z,1010.71
2023-02-02T00:47:21.554Z,1010.67
2023-02-02T00:48:21.736Z,1010.66
2023-02-02T00:49:21.907Z,1010.71
2023-02-02T00:50:22.075Z,1010.68
2023-02-02T00:51:22.276Z,1010.69
2023-02-02T00:52:22.415Z,1010.62
2023-02-02T00:53:22.608Z,1010.65
2023-02-02T00:54:22.829Z,1010.71
2023-02-02T00:55:23.281Z,1010.64
2023-02-02T00:56:23.113Z,1010.69
2023-02-02T00:57:23.282Z,1010.67
2023-02-02T00:58:23.465Z,1010.62
2023-02-02T00:59:23.637Z,1010.66
2023-02-02T01:00:23.808Z,1010.58
2023-02-02T01:01:24.025Z,1010.49
2023-02-02T01:02:24.258Z,1010.52
2023-02-02T01:03:24.344Z,1010.67
2023-02-02T01:04:24.525Z,1010.58
2023-02-02T01:05:25.052Z,1010.60
2023-02-02T01:06:24.852Z,1010.68
2023-02-02T01:07:25.084Z,1010.66
2023-02-02T01:08:25.214Z,1010.65
2023-02-02T01:09:25.384Z,1010.68
2023-02-02T01:10:25.600Z,1010.60
2023-02-02T01:11:25.729Z,1010.70
2023-02-02T01:12:25.899Z,1010.66
2023-02-02T01:13:26.088Z,1010.55
2023-02-02T01:14:26.266Z,1010.62
2023-02-02T01:15:26.649Z,1010.63
2023-02-02T01:16:26.655Z,1010.56
2023-02-02T01:17:26.783Z,1010.59
2023-02-02T01:18:26.987Z,1010.49
2023-02-02T01:19:27.243Z,1010.66
2023-02-02T01:20:27.284Z,1010.64
2023-02-02T01:21:27.462Z,1010.65
2023-02-02T01:22:27.668Z,1010.72
2023-02-02T01:23:27.811Z,1010.68
2023-02-02T01:24:27.991Z,1010.72
2023-02-02T01:25:28.203Z,1010.72
2023-02-02T01:26:28.354Z,1010.65
2023-02-02T01:27:28.513Z,1010.61
2023-02-02T01:28:28.809Z,1010.70
2023-02-02T01:29:28.853Z,1010.53
2023-02-02T01:30:29.021Z,1010.71
2023-02-02T01:31:29.281Z,1010.76
2023-02-02T01:32:29.372Z,1010.80
2023-02-02T01:33:29.559Z,1010.72
2023-02-02T01:34:29.750Z,1010.83
2023-02-02T01:35:29.913Z,1010.70
2023-02-02T01:36:30.094Z,1010.79
2023-02-02T01:37:30.255Z,1010.79
2023-02-02T01:38:30.439Z,1010.76
2023-02-02T01:39:30.612Z,1010.82
2023-02-02T01:40:30.794Z,1010.84
2023-02-02T01:41:31.067Z,1010.92
2023-02-02T01:42:31.150Z,1010.81
2023-02-02T01:43:31.336Z,1010.88
2023-02-02T01:44:31.603Z,1010.79
2023-02-02T01:45:31.739Z,1010.85
2023-02-02T01:46:31.869Z,1010.74
2023-02-02T01:47:32.117Z,1010.85
2023-02-02T01:48:32.249Z,1010.81
2023-02-02T01:49:32.410Z,1010.80
2023-02-02T01:50:32.635Z,1010.85
2023-02-02T01:51:32.760Z,1010.84
2023-02-02T01:52:32.941Z,1010.86
2023-02-02T01:53:33.141Z,1010.82
2023-02-02T01:54:33.270Z,1010.89
2023-02-02T01:55:33.438Z,1010.94
2023-02-02T01:56:33.619Z,1010.94
2023-02-02T01:57:33.779Z,1011.01
2023-02-02T01:58:33.961Z,1010.87
2023-02-02T01:59:34.131Z,1010.88
2023-02-02T02:00:34.299Z,1010.93
2023-02-02T02:01:34.486Z,1010.91
2023-02-02T02:02:34.700Z,1011.07
2023-02-02T02:03:34.818Z,1010.83
2023-02-02T02:04:34.987Z,1011.00
2023-02-02T02:05:35.194Z,1011.07
2023-02-02T02:06:35.361Z,1011.04
2023-02-02T02:07:35.538Z,1010.95
2023-02-02T02:08:35.711Z,1011.03
2023-02-02T02:09:35.935Z,1011.02
2023-02-02T02:10:36.054Z,1010.92
2023-02-02T02:11:36.232Z,1011.03
2023-02-02T02:12:36.399Z,1011.02
2023-02-02T02:13:36.585Z,1010.90
2023-02-02T02:14:36.756Z,1010.96
2023-02-02T02:15:36.916Z,1011.10
2023-02-02T02:16:37.137Z,1010.98
2023-02-02T02:17:37.276Z,1011.13
2023-02-02T02:18:37.457Z,1010.94
2023-02-02T02:19:37.635Z,1011.19
2023-02-02T02:20:37.795Z,1011.10
2023-02-02T02:21:37.975Z,1011.22
2023-02-02T02:22:38.127Z,1011.01
2023-02-02T02:23:38.335Z,1011.12
2023-02-02T02:24:38.477Z,1011.19
2023-02-02T02:25:38.722Z,1011.03
2023-02-02T02:26:38.911Z,1011.10
2023-02-02T02:27:39.001Z,1011.19
2023-02-02T02:28:39.185Z,1011.01
2023-02-02T02:29:39.393Z,1011.10
2023-02-02T02:30:39.574Z,1011.05
2023-02-02T02:31:39.732Z,1011.14
2023-02-02T02:32:39.857Z,1011.14
2023-02-02T02:33:40.037Z,1011.11
2023-02-02T02:34:40.205Z,1010.86
2023-02-02T02:35:40.413Z,1011.18
2023-02-02T02:36:40.564Z,1011.18
2023-02-02T02:37:40.757Z,1011.22
2023-02-02T02:38:40.926Z,1011.12
2023-02-02T02:39:41.075Z,1011.25
2023-02-02T02:40:41.244Z,1011.17
2023-02-02T02:41:41.414Z,1011.19
2023-02-02T02:42:41.673Z,1011.18
2023-02-02T02:43:41.777Z,1011.18
2023-02-02T02:44:41.913Z,1011.20
2023-02-02T02:45:42.094Z,1011.07
2023-02-02T02:46:42.244Z,1011.21
2023-02-02T02:47:42.420Z,1011.19
2023-02-02T02:48:42.597Z,1011.12
2023-02-02T02:49:42.772Z,1011.30
2023-02-02T02:50:42.933Z,1011.27
2023-02-02T02:51:43.114Z,1011.36
2023-02-02T02:52:43.286Z,1011.24
2023-02-02T02:53:43.485Z,1011.34
2023-02-02T02:54:43.652Z,1011.10
2023-02-02T02:55:43.843Z,1011.35
2023-02-02T02:56:44.004Z,1011.38
2023-02-02T02:57:44.171Z,1011.42
2023-02-02T02:58:44.366Z,1011.41
2023-02-02T02:59:44.505Z,1011.34
2023-02-02T03:00:44.683Z,1011.50
2023-02-02T03:01:44.894Z,1011.42
2023-02-02T03:02:45.056Z,1011.33
2023-02-02T03:03:45.223Z,1011.53
2023-02-02T03:04:45.373Z,1011.57
2023-02-02T03:05:45.554Z,1011.54
2023-02-02T03:06:45.741Z,1011.37
2023-02-02T03:07:45.901Z,1011.61
2023-02-02T03:08:46.091Z,1011.67
2023-02-02T03:09:46.283Z,1011.58
2023-02-02T03:10:46.423Z,1011.71
2023-02-02T03:11:46.592Z,1011.62
2023-02-02T03:12:46.760Z,1011.66
2023-02-02T03:13:46.933Z,1011.69
2023-02-02T03:14:47.105Z,1011.81
2023-02-02T03:15:47.314Z,1011.66
2023-02-02T03:16:47.449Z,1011.86
2023-02-02T03:17:47.620Z,1011.74
2023-02-02T03:18:47.805Z,1011.87
2023-02-02T03:19:47.975Z,1011.85
2023-02-02T03:20:48.164Z,1011.90
2023-02-02T03:21:48.322Z,1011.95
2023-02-02T03:22:48.494Z,1011.85
2023-02-02T03:23:48.717Z,1011.86
2023-02-02T03:24:48.896Z,1011.87
2023-02-02T03:25:49.016Z,1011.90
2023-02-02T03:26:49.225Z,1011.93
2023-02-02T03:27:49.331Z,1012.05
2023-02-02T03:28:49.513Z,1012.05
2023-02-02T03:29:49.731Z,1012.10
2023-02-02T03:30:49.954Z,1011.93
2023-02-02T03:31:50.030Z,1012.08
2023-02-02T03:32:50.285Z,1012.07
2023-02-02T03:33:50.390Z,1012.14
2023-02-02T03:34:50.630Z,1012.07
2023-02-02T03:35:50.752Z,1012.15
2023-02-02T03:36:50.911Z,1012.20
2023-02-02T03:37:51.109Z,1012.20
2023-02-02T03:38:51.300Z,1012.18
2023-02-02T03:39:53.169Z,1012.25
2023-02-02T03:40:51.629Z,1012.29
2023-02-02T03:41:51.802Z,1012.26
2023-02-02T03:42:51.975Z,1012.33
2023-02-02T03:43:52.181Z,1012.34
2023-02-02T03:44:52.344Z,1012.38
2023-02-02T03:45:52.573Z,1012.36
2023-02-02T03:46:52.690Z,1012.40
2023-02-02T03:47:52.870Z,1012.41
2023-02-02T03:48:53.148Z,1012.49
2023-02-02T03:49:53.188Z,1012.47
2023-02-02T03:50:53.369Z,1012.43
2023-02-02T03:51:53.618Z,1012.42
2023-02-02T03:52:53.720Z,1012.53
2023-02-02T03:53:53.919Z,1012.53
2023-02-02T03:54:54.139Z,1012.48
2023-02-02T03:55:54.239Z,1012.48
2023-02-02T03:56:54.400Z,1012.55
2023-02-02T03:57:54.609Z,1012.41
2023-02-02T03:58:54.741Z,1012.45
2023-02-02T03:59:54.899Z,1012.50
2023-02-02T04:00:55.057Z,1012.49
2023-02-02T04:01:55.296Z,1012.40
2023-02-02T04:02:55.485Z,1012.55
2023-02-02T04:03:55.607Z,1012.53
2023-02-02T04:04:55.759Z,1012.58
2023-02-02T04:05:55.938Z,1012.58
2023-02-02T04:06:56.099Z,1012.67
2023-02-02T04:07:56.291Z,1012.68
2023-02-02T04:08:56.459Z,1012.66
2023-02-02T04:09:56.640Z,1012.73
2023-02-02T04:10:56.821Z,1012.71
2023-02-02T04:11:56.974Z,1012.73
2023-02-02T04:12:57.130Z,1012.77
2023-02-02T04:13:57.321Z,1012.77
2023-02-02T04:14:57.457Z,1012.91
2023-02-02T04:15:57.709Z,1012.90
2023-02-02T04:16:57.830Z,1012.89
2023-02-02T04:17:58.004Z,1012.94
2023-02-02T04:18:58.240Z,1012.91
2023-02-02T04:19:58.339Z,1013.02
2023-02-02T04:20:58.496Z,1013.00
2023-02-02T04:21:58.737Z,1013.01
2023-02-02T04:22:58.817Z,1013.07
2023-02-02T04:23:59.055Z,1013.04
2023-02-02T04:24:59.236Z,1013.08
2023-02-02T04:25:59.371Z,1013.15
2023-02-02T04:26:59.520Z,1013.11
2023-02-02T04:27:59.733Z,1013.23
2023-02-02T04:28:59.904Z,1013.21
2023-02-02T04:30:00.101Z,1013.25
2023-02-02T04:31:00.263Z,1013.30
2023-02-02T04:32:00.472Z,1013.19
2023-02-02T04:33:00.595Z,1013.30
2023-02-02T04:34:00.809Z,1013.27
2023-02-02T04:35:00.966Z,1013.27
2023-02-02T04:36:01.148Z,1013.30
2023-02-02T04:37:01.305Z,1013.22
2023-02-02T04:38:01.496Z,1013.26
2023-02-02T04:39:01.686Z,1013.26
2023-02-02T04:40:01.901Z,1013.33
2023-02-02T04:41:02.007Z,1013.29
2023-02-02T04:42:02.205Z,1013.35
2023-02-02T04:43:02.384Z,1013.39
2023-02-02T04:44:02.563Z,1013.42
2023-02-02T04:45:02.736Z,1013.38
2023-02-02T04:46:02.947Z,1013.42
2023-02-02T04:47:03.078Z,1013.47
2023-02-02T04:48:03.292Z,1013.49
2023-02-02T04:49:03.454Z,1013.44
2023-02-02T04:50:03.616Z,1013.38
2023-02-02T04:51:03.828Z,1013.50
2023-02-02T04:52:03.944Z,1013.50
2023-02-02T04:53:04.142Z,1013.55
2023-02-02T04:54:04.355Z,1013.47
2023-02-02T04:55:04.455Z,1013.48
2023-02-02T04:56:04.599Z,1013.51
2023-02-02T04:57:04.764Z,1013.51
2023-02-02T04:58:05.012Z,1013.52
2023-02-02T04:59:05.093Z,1013.60
2023-02-02T05:00:05.264Z,1013.58
2023-02-02T05:01:05.544Z,1013.53
2023-02-02T05:02:05.614Z,1013.59
2023-02-02T05:03:05.778Z,1013.59
2023-02-02T05:04:06.125Z,1013.71
2023-02-02T05:05:06.106Z,1013.65
2023-02-02T05:06:06.278Z,1013.61
2023-02-02T05:07:06.465Z,1013.62
2023-02-02T05:08:06.614Z,1013.64
2023-02-02T05:09:06.799Z,1013.64
2023-02-02T05:10:06.981Z,1013.75
2023-02-02T05:11:07.141Z,1013.77
2023-02-02T05:12:07.303Z,1013.73
2023-02-02T05:13:07.468Z,1013.69
2023-02-02T05:14:07.633Z,1013.80
2023-02-02T05:15:07.805Z,1013.78
2023-02-02T05:16:08.116Z,1013.80
2023-02-02T05:17:08.172Z,1013.78
2023-02-02T05:18:08.323Z,1013.90
2023-02-02T05:19:08.504Z,1013.85
2023-02-02T05:20:08.731Z,1013.88
2023-02-02T05:21:08.843Z,1014.00
2023-02-02T05:22:09.010Z,1013.98
2023-02-02T05:23:09.258Z,1013.99
2023-02-02T05:24:09.381Z,1013.92
2023-02-02T05:25:09.531Z,1013.93
2023-02-02T05:26:09.756Z,1014.00
2023-02-02T05:27:09.862Z,1014.03
2023-02-02T05:28:10.020Z,1014.00
2023-02-02T05:29:10.257Z,1014.02
2023-02-02T05:30:10.366Z,1014.05
2023-02-02T05:31:10.598Z,1014.09
2023-02-02T05:32:10.812Z,1014.07
2023-02-02T05:33:10.855Z,1014.16
2023-02-02T05:34:11.062Z,1014.17
2023-02-02T05:35:11.228Z,1014.16
2023-02-02T05:36:11.382Z,1014.11
2023-02-02T05:37:11.541Z,1014.16
2023-02-02T05:38:11.702Z,1014.20
2023-02-02T05:39:11.887Z,1014.15
2023-02-02T05:40:12.053Z,1014.27
2023-02-02T05:41:12.211Z,1014.26
2023-02-02T05:42:12.391Z,1014.23
2023-02-02T05:43:12.571Z,1014.24
2023-02-02T05:44:12.762Z,1014.25
2023-02-02T05:45:12.987Z,1014.29
2023-02-02T05:46:13.080Z,1014.37
2023-02-02T05:47:13.266Z,1014.34
2023-02-02T05:48:13.507Z,1014.38
2023-02-02T05:49:13.646Z,1014.38
2023-02-02T05:50:13.805Z,1014.45
2023-02-02T05:51:13.969Z,1014.41
2023-02-02T05:52:14.127Z,1014.42
2023-02-02T05:53:14.279Z,1014.47
2023-02-02T05:54:14.495Z,1014.52
2023-02-02T05:55:14.641Z,1014.55
2023-02-02T05:56:14.802Z,1014.50
2023-02-02T05:57:14.975Z,1014.52
2023-02-02T05:58:15.120Z,1014.55
2023-02-02T05:59:15.328Z,1014.63
2023-02-02T06:00:15.479Z,1014.64
2023-02-02T06:01:15.640Z,1014.64
2023-02-02T06:02:15.802Z,1014.69
2023-02-02T06:03:16.173Z,1014.68
2023-02-02T06:04:16.251Z,1014.65
2023-02-02T06:05:16.298Z,1014.72
2023-02-02T06:06:16.533Z,1014.72
2023-02-02T06:07:16.653Z,1014.70
2023-02-02T06:08:16.798Z,1014.77
2023-02-02T06:09:17.046Z,1014.77
2023-02-02T06:10:17.115Z,1014.79
2023-02-02T06:11:17.291Z,1014.76
2023-02-02T06:12:17.480Z,1014.78
2023-02-02T06:13:17.640Z,1014.79
2023-02-02T06:14:17.832Z,1014.79
2023-02-02T06:15:17.970Z,1014.78
2023-02-02T06:16:18.174Z,1014.81
2023-02-02T06:17:18.281Z,1014.82
2023-02-02T06:18:18.466Z,1014.92
2023-02-02T06:19:18.694Z,1014.82
2023-02-02T06:20:21.311Z,1014.95
2023-02-02T06:21:18.972Z,1014.88
2023-02-02T06:22:19.158Z,1014.92
2023-02-02T06:23:19.301Z,1014.93
2023-02-02T06:24:19.486Z,1014.90
2023-02-02T06:25:19.649Z,1015.01
2023-02-02T06:26:19.898Z,1014.99
2023-02-02T06:27:19.998Z,1015.02
2023-02-02T06:28:20.159Z,1015.07
2023-02-02T06:29:20.388Z,1015.07
2023-02-02T06:30:20.507Z,1015.01
2023-02-02T06:31:20.787Z,1015.01
2023-02-02T06:32:20.936Z,1015.04
2023-02-02T06:33:21.050Z,1015.16
2023-02-02T06:34:21.250Z,1015.12
2023-02-02T06:35:21.459Z,1015.13
2023-02-02T06:36:21.560Z,1015.13
2023-02-02T06:37:21.751Z,1015.15
2023-02-02T06:38:21.926Z,1015.17
2023-02-02T06:39:22.153Z,1015.24
2023-02-02T06:40:22.324Z,1015.26
2023-02-02T06:41:22.473Z,1015.30
2023-02-02T06:42:22.655Z,1015.25
2023-02-02T06:43:22.882Z,1015.27
2023-02-02T06:44:23.029Z,1015.29
2023-02-02T06:45:23.327Z,1015.34
2023-02-02T06:46:23.428Z,1015.32
2023-02-02T06:47:24.996Z,1015.37
2023-02-02T06:48:23.716Z,1015.40
2023-02-02T06:49:23.945Z,1015.32
2023-02-02T06:50:24.152Z,1015.35
2023-02-02T06:51:24.264Z,1015.40
2023-02-02T06:52:24.485Z,1015.36
2023-02-02T06:53:24.625Z,1015.40
2023-02-02T06:54:24.827Z,1015.41
2023-02-02T06:55:25.322Z,1015.39
2023-02-02T06:56:25.169Z,1015.48
2023-02-02T06:57:25.428Z,1015.46
2023-02-02T06:58:25.533Z,1015.49
2023-02-02T06:59:25.757Z,1015.47
2023-02-02T07:00:25.975Z,1015.50
2023-02-02T07:01:26.100Z,1015.55
2023-02-02T07:02:26.343Z,1015.54
2023-02-02T07:03:26.467Z,1015.58
2023-02-02T07:04:26.625Z,1015.53
2023-02-02T07:05:30.005Z,1015.60
2023-02-02T07:06:27.008Z,1015.56
2023-02-02T07:07:27.127Z,1015.63
2023-02-02T07:08:27.316Z,1015.66
2023-02-02T07:09:27.492Z,1015.68
2023-02-02T07:11:14.989Z,1015.71
2023-02-02T07:11:28.850Z,1015.70
2023-02-02T07:12:28.027Z,1015.74
2023-02-02T07:13:28.212Z,1015.68
2023-02-02T07:14:28.407Z,1015.72
2023-02-02T07:15:28.610Z,1015.77
2023-02-02T07:16:28.770Z,1015.73
2023-02-02T07:17:28.938Z,1015.81
2023-02-02T07:18:29.086Z,1015.80
2023-02-02T07:19:29.394Z,1015.78
2023-02-02T07:20:29.598Z,1015.82
2023-02-02T07:21:29.645Z,1015.87
2023-02-02T07:22:29.812Z,1015.88
2023-02-02T07:23:30.006Z,1015.95
2023-02-02T07:24:30.187Z,1015.97
2023-02-02T07:25:30.371Z,1015.99
2023-02-02T07:26:30.570Z,1015.95
2023-02-02T07:27:30.691Z,1016.02
2023-02-02T07:28:30.841Z,1015.95
2023-02-02T07:29:31.025Z,1015.99
2023-02-02T07:30:31.226Z,1016.02
2023-02-02T07:31:32.555Z,1015.93
2023-02-02T07:32:31.552Z,1015.99
2023-02-02T07:33:31.703Z,1016.07
2023-02-02T07:34:31.977Z,1016.06
2023-02-02T07:35:32.096Z,1016.02
2023-02-02T07:36:32.245Z,1016.05
2023-02-02T07:37:32.460Z,1016.04
2023-02-02T07:38:32.601Z,1016.07
2023-02-02T07:39:32.791Z,1016.06
2023-02-02T07:40:33.073Z,1016.05
2023-02-02T07:41:33.135Z,1016.07
2023-02-02T07:42:33.408Z,1016.06
2023-02-02T07:43:33.504Z,1016.11
2023-02-02T07:44:33.647Z,1016.15
2023-02-02T07:45:33.841Z,1016.14
2023-02-02T07:46:34.096Z,1016.13
2023-02-02T07:47:34.204Z,1016.19
2023-02-02T07:48:34.410Z,1016.23
2023-02-02T07:49:34.582Z,1016.17
2023-02-02T07:50:34.766Z,1016.24
2023-02-02T07:51:37.303Z,1016.23
2023-02-02T07:52:35.071Z,1016.26
2023-02-02T07:53:35.264Z,1016.31
2023-02-02T07:54:35.400Z,1016.31
2023-02-02T07:55:35.600Z,1016.32
2023-02-02T07:56:35.805Z,1016.32
2023-02-02T07:57:35.929Z,1016.33
2023-02-02T07:58:36.117Z,1016.36
2023-02-02T07:59:36.291Z,1016.36
2023-02-02T08:00:36.501Z,1016.36
2023-02-02T08:01:36.662Z,1016.36
2023-02-02T08:02:36.823Z,1016.40
2023-02-02T08:03:36.980Z,1016.41
2023-02-02T08:04:37.183Z,1016.45
2023-02-02T08:05:37.381Z,1016.42
2023-02-02T08:06:37.511Z,1016.44
2023-02-02T08:07:37.715Z,1016.47
2023-02-02T08:08:37.861Z,1016.52
2023-02-02T08:09:38.100Z,1016.57
2023-02-02T08:10:38.210Z,1016.51
2023-02-02T08:11:38.420Z,1016.54
2023-02-02T08:12:38.617Z,1016.60
2023-02-02T08:13:38.734Z,1016.55
2023-02-02T08:14:38.912Z,1016.57
2023-02-02T08:15:39.148Z,1016.64
2023-02-02T08:16:39.278Z,1016.64
2023-02-02T08:17:39.458Z,1016.62
2023-02-02T08:18:39.645Z,1016.64
2023-02-02T08:19:39.815Z,1016.67
2023-02-02T08:20:39.970Z,1016.68
2023-02-02T08:21:40.130Z,1016.69
2023-02-02T08:22:40.310Z,1016.68
2023-02-02T08:23:40.510Z,1016.70
2023-02-02T08:24:40.688Z,1016.74
2023-02-02T08:25:40.875Z,1016.79
2023-02-02T08:26:41.068Z,1016.73
2023-02-02T08:27:41.194Z,1016.80
2023-02-02T08:28:41.409Z,1016.89
2023-02-02T08:29:41.561Z,1016.84
2023-02-02T08:30:41.816Z,1016.89
2023-02-02T08:31:42.162Z,1016.99
2023-02-02T08:32:42.119Z,1016.98
2023-02-02T08:33:42.283Z,1017.01
2023-02-02T08:34:42.450Z,1016.97
2023-02-02T08:35:42.654Z,1016.92
2023-02-02T08:36:42.785Z,1016.94
2023-02-02T08:37:42.980Z,1016.98
2023-02-02T08:38:43.189Z,1017.00
2023-02-02T08:39:43.333Z,1017.06
2023-02-02T08:40:43.491Z,1017.05
2023-02-02T08:41:43.681Z,1017.06
2023-02-02T08:42:43.857Z,1017.05
2023-02-02T08:43:44.052Z,1017.04
2023-02-02T08:46:01.760Z,1017.01
2023-02-02T08:46:02.112Z,1017.04
2023-02-02T08:46:45.589Z,1017.04
2023-02-02T08:47:44.727Z,1017.07
2023-02-02T08:48:44.897Z,1017.10
2023-02-02T08:49:45.070Z,1016.97
2023-02-02T08:50:45.244Z,1016.97
2023-02-02T08:51:45.388Z,1016.99
2023-02-02T08:52:45.597Z,1016.96
2023-02-02T08:53:45.741Z,1017.07
2023-02-02T08:54:45.947Z,1017.03
2023-02-02T08:55:46.122Z,1016.96
2023-02-02T08:56:46.258Z,1016.94
2023-02-02T08:57:46.495Z,1016.98
2023-02-02T08:58:46.663Z,1017.01
2023-02-02T08:59:46.819Z,1017.09
2023-02-02T09:00:47.089Z,1017.07
2023-02-02T09:01:47.189Z,1017.07
2023-02-02T09:02:47.341Z,1017.04
2023-02-02T09:03:47.522Z,1017.10
2023-02-02T09:04:47.670Z,1017.02
2023-02-02T09:05:47.877Z,1017.06
2023-02-02T09:06:48.039Z,1017.04
2023-02-02T09:07:48.190Z,1017.04
2023-02-02T09:08:48.373Z,1017.05
2023-02-02T09:09:48.525Z,1017.04
2023-02-02T09:10:48.699Z,1017.02
2023-02-02T09:11:48.864Z,1017.05
2023-02-02T09:12:49.016Z,1017.00
2023-02-02T09:13:49.227Z,1016.98
2023-02-02T09:14:49.488Z,1016.96
2023-02-02T09:15:49.594Z,1016.95
2023-02-02T09:16:49.758Z,1016.98
2023-02-02T09:17:49.899Z,1017.02
2023-02-02T09:18:50.089Z,1017.03
2023-02-02T09:19:54.316Z,1017.01
2023-02-02T09:20:50.439Z,1017.07
2023-02-02T09:21:50.602Z,1017.11
2023-02-02T09:22:50.761Z,1017.12
2023-02-02T09:23:50.922Z,1017.14
2023-02-02T09:24:51.118Z,1017.14
2023-02-02T09:25:51.314Z,1017.15
2023-02-02T09:26:51.552Z,1017.16
2023-02-02T09:27:51.635Z,1017.19
2023-02-02T09:28:51.776Z,1017.21
2023-02-02T09:29:51.965Z,1017.26
2023-02-02T09:30:52.168Z,1017.27
2023-02-02T09:31:52.391Z,1017.26
2023-02-02T09:32:52.498Z,1017.24
2023-02-02T09:33:52.660Z,1017.25
2023-02-02T09:34:52.834Z,1017.29
2023-02-02T09:35:53.091Z,1017.35
2023-02-02T09:36:53.167Z,1017.24
2023-02-02T09:37:53.332Z,1017.32
2023-02-02T09:38:53.544Z,1017.32
2023-02-02T09:39:53.675Z,1017.35
2023-02-02T09:40:53.873Z,1017.34
2023-02-02T09:41:54.075Z,1017.45
2023-02-02T09:42:54.235Z,1017.40
2023-02-02T09:43:54.385Z,1017.50
2023-02-02T09:44:54.566Z,1017.53
2023-02-02T09:45:54.838Z,1017.66
2023-02-02T09:46:55.015Z,1017.55
2023-02-02T09:47:55.065Z,1017.54
2023-02-02T09:48:55.346Z,1017.56
2023-02-02T09:49:55.431Z,1017.60
2023-02-02T09:50:55.700Z,1017.55
2023-02-02T09:51:55.783Z,1017.63
2023-02-02T09:52:55.927Z,1017.57
2023-02-02T09:53:56.291Z,1017.55
2023-02-02T09:54:56.278Z,1017.57
2023-02-02T09:55:56.475Z,1017.57
2023-02-02T09:56:56.643Z,1017.57
2023-02-02T09:57:56.800Z,1017.53
2023-02-02T09:58:58.850Z,1017.53
2023-02-02T09:59:58.155Z,1017.53
2023-02-02T10:00:57.384Z,1017.48
2023-02-02T10:01:57.571Z,1017.44
2023-02-02T10:02:57.680Z,1017.47
2023-02-02T10:03:57.939Z,1017.42
2023-02-02T10:04:58.106Z,1017.45
2023-02-02T10:05:58.235Z,1017.51
2023-02-02T10:06:58.426Z,1017.51
2023-02-02T10:07:58.630Z,1017.53
2023-02-02T10:08:58.763Z,1017.51
2023-02-02T10:09:58.966Z,1017.54
2023-02-02T10:10:59.144Z,1017.61
2023-02-02T10:11:59.324Z,1017.61
2023-02-02T10:12:59.437Z,1017.62
2023-02-02T10:13:59.712Z,1017.73
2023-02-02T10:14:59.875Z,1017.55
2023-02-02T10:16:01.673Z,1017.63
2023-02-02T10:17:00.210Z,1017.64
2023-02-02T10:18:00.328Z,1017.75
2023-02-02T10:19:00.488Z,1017.64
2023-02-02T10:20:00.675Z,1017.71
2023-02-02T10:21:00.923Z,1017.73
2023-02-02T10:22:01.044Z,1017.71
2023-02-02T10:23:01.205Z,1017.71
2023-02-02T10:24:02.450Z,1017.70
2023-02-02T10:25:01.560Z,1017.71
2023-02-02T10:26:01.743Z,1017.70
2023-02-02T10:27:01.981Z,1017.77
2023-02-02T10:28:02.114Z,1017.64
2023-02-02T10:29:02.271Z,1017.73
2023-02-02T10:30:02.511Z,1017.74
2023-02-02T10:31:02.843Z,1017.76
2023-02-02T10:32:02.905Z,1017.74
2023-02-02T10:33:03.008Z,1017.75
2023-02-02T10:34:03.180Z,1017.76
2023-02-02T10:35:13.520Z,1017.83
2023-02-02T10:36:04.537Z,1017.79
2023-02-02T10:37:03.722Z,1017.72
2023-02-02T10:38:03.893Z,1017.85
2023-02-02T10:39:04.055Z,1017.89
2023-02-02T10:40:04.214Z,1017.91
2023-02-02T10:41:04.385Z,1017.93
2023-02-02T10:42:04.526Z,1017.98
2023-02-02T10:43:04.703Z,1018.02
2023-02-02T10:44:04.913Z,1017.99
2023-02-02T10:45:05.053Z,1018.14
2023-02-02T10:46:05.299Z,1018.10
2023-02-02T10:47:05.422Z,1018.06
2023-02-02T10:48:05.643Z,1018.14
2023-02-02T10:49:05.817Z,1018.16
2023-02-02T10:50:05.972Z,1018.18
2023-02-02T10:51:06.136Z,1018.15
2023-02-02T10:52:06.296Z,1018.13
2023-02-02T10:53:06.480Z,1018.12
2023-02-02T10:54:06.622Z,1018.13
2023-02-02T10:55:06.833Z,1018.16
2023-02-02T10:56:07.041Z,1018.16
2023-02-02T10:57:07.132Z,1018.14
2023-02-02T10:58:07.316Z,1018.14
2023-02-02T10:59:07.539Z,1018.20
2023-02-02T11:00:07.705Z,1018.20
2023-02-02T11:01:07.918Z,1018.18
2023-02-02T11:02:20.050Z,1018.27
2023-02-02T11:03:09.222Z,1018.32
2023-02-02T11:04:08.367Z,1018.29
2023-02-02T11:05:08.575Z,1018.26
2023-02-02T11:06:08.732Z,1018.34
2023-02-02T11:07:08.901Z,1018.30
2023-02-02T11:08:09.055Z,1018.30
2023-02-02T11:09:09.233Z,1018.36
2023-02-02T11:10:09.412Z,1018.42
2023-02-02T11:11:09.620Z,1018.32
2023-02-02T11:12:09.761Z,1018.37
2023-02-02T11:13:09.943Z,1018.50
2023-02-02T11:14:10.098Z,1018.45
2023-02-02T11:15:10.243Z,1018.47
2023-02-02T11:16:10.508Z,1018.47
2023-02-02T11:17:10.591Z,1018.45
2023-02-02T11:18:10.780Z,1018.41
2023-02-02T11:19:10.963Z,1018.54
2023-02-02T11:20:11.142Z,1018.52
2023-02-02T11:21:11.350Z,1018.45
2023-02-02T11:22:11.492Z,1018.47
2023-02-02T11:23:11.683Z,1018.47
2023-02-02T11:24:11.954Z,1018.47
2023-02-02T11:25:12.057Z,1018.52
2023-02-02T11:26:12.230Z,1018.57
2023-02-02T11:27:12.429Z,1018.45
2023-02-02T11:28:12.539Z,1018.54
2023-02-02T11:29:12.738Z,1018.59
2023-02-02T11:30:12.930Z,1018.63
2023-02-02T11:31:13.196Z,1018.56
2023-02-02T11:32:13.261Z,1018.58
2023-02-02T11:33:13.422Z,1018.52
2023-02-02T11:34:13.578Z,1018.54
2023-02-02T11:35:13.751Z,1018.58
2023-02-02T11:36:13.924Z,1018.61
2023-02-02T11:37:14.091Z,1018.57
2023-02-02T11:38:14.271Z,1018.56
2023-02-02T11:39:14.449Z,1018.57
2023-02-02T11:40:14.650Z,1018.60
2023-02-02T11:41:14.842Z,1018.63
2023-02-02T11:42:14.999Z,1018.61
2023-02-02T11:43:15.155Z,1018.64
2023-02-02T11:44:15.310Z,1018.56
2023-02-02T11:45:15.504Z,1018.69
2023-02-02T11:46:15.800Z,1018.64
2023-02-02T11:47:15.781Z,1018.70
2023-02-02T11:48:15.978Z,1018.67
2023-02-02T11:49:16.165Z,1018.69
2023-02-02T11:50:16.341Z,1018.68
2023-02-02T11:51:16.623Z,1018.74
2023-02-02T11:52:17.773Z,1018.72
2023-02-02T11:53:16.872Z,1018.71
2023-02-02T11:54:17.060Z,1018.73
2023-02-02T11:55:17.322Z,1018.76
2023-02-02T11:56:17.434Z,1018.72
2023-02-02T11:57:17.613Z,1018.67
2023-02-02T11:58:17.773Z,1018.66
2023-02-02T11:59:17.929Z,1018.71
2023-02-02T12:00:18.109Z,1018.69
2023-02-02T12:01:18.309Z,1018.68
2023-02-02T12:02:18.486Z,1018.68
2023-02-02T12:03:18.631Z,1018.64
2023-02-02T12:04:18.861Z,1018.68
2023-02-02T12:05:19.050Z,1018.76
2023-02-02T12:06:19.262Z,1018.74
2023-02-02T12:07:19.340Z,1018.78